createdAt,value
2024-02-27T00:00:04.633Z,37.88
2024-02-27T00:02:31.679Z,42.53
2024-02-27T00:04:58.775Z,52.35
2024-02-27T00:07:27.365Z,46.08
2024-02-27T00:09:54.368Z,42.83
2024-02-27T00:12:23.264Z,42.00
2024-02-27T00:14:50.364Z,42.22
2024-02-27T00:17:17.510Z,40.60
2024-02-27T00:19:44.648Z,43.53
2024-02-27T00:22:12.606Z,70.40
2024-02-27T00:24:39.658Z,73.80
2024-02-27T00:27:06.709Z,77.80
2024-02-27T00:29:35.098Z,91.30
2024-02-27T00:32:02.180Z,79.22
2024-02-27T00:34:30.336Z,67.22
2024-02-27T00:36:57.709Z,50.80
2024-02-27T00:39:25.100Z,45.83
2024-02-27T00:41:52.890Z,42.75
2024-02-27T00:44:22.404Z,43.60
2024-02-27T00:46:51.587Z,38.35
2024-02-27T00:49:18.963Z,37.17
2024-02-27T00:51:48.166Z,41.13
2024-02-27T00:54:15.216Z,40.42
2024-02-27T00:56:42.473Z,38.20
2024-02-27T00:59:09.597Z,38.20
2024-02-27T01:01:38.914Z,38.05
2024-02-27T01:04:06.046Z,37.60
2024-02-27T01:06:33.137Z,46.05
2024-02-27T01:09:00.298Z,44.58
2024-02-27T01:11:27.647Z,41.17
2024-02-27T01:13:55.200Z,36.55
2024-02-27T01:16:23.868Z,44.70
2024-02-27T01:18:51.124Z,43.38
2024-02-27T01:21:19.083Z,34.55
2024-02-27T01:23:46.147Z,42.15
2024-02-27T01:26:13.842Z,34.60
2024-02-27T01:28:41.294Z,35.53
2024-02-27T01:31:08.317Z,32.53
2024-02-27T01:33:37.927Z,38.08
2024-02-27T01:36:05.556Z,35.08
2024-02-27T01:38:32.670Z,41.00
2024-02-27T01:40:59.661Z,31.50
2024-02-27T01:43:29.384Z,41.72
2024-02-27T01:46:17.658Z,35.73
2024-02-27T01:48:46.469Z,45.88
2024-02-27T01:51:15.214Z,52.28
2024-02-27T01:53:44.968Z,43.05
2024-02-27T01:56:13.105Z,45.17
2024-02-27T01:58:42.983Z,47.65
2024-02-27T02:01:12.957Z,43.90
2024-02-27T02:03:40.936Z,46.47
2024-02-27T02:06:09.680Z,43.47
2024-02-27T02:08:37.256Z,38.95
2024-02-27T02:11:08.925Z,45.05
2024-02-27T02:13:36.515Z,41.83
2024-02-27T02:16:03.903Z,45.70
2024-02-27T02:18:31.861Z,51.08
2024-02-27T02:21:01.444Z,36.42
2024-02-27T02:23:28.723Z,36.88
2024-02-27T02:25:57.589Z,31.20
2024-02-27T02:28:24.560Z,37.90
2024-02-27T02:30:51.669Z,32.85
2024-02-27T02:33:19.283Z,36.92
2024-02-27T02:35:46.423Z,30.98
2024-02-27T02:38:14.646Z,27.58
2024-02-27T02:40:41.715Z,28.60
2024-02-27T02:43:09.201Z,30.95
2024-02-27T02:45:36.235Z,32.60
2024-02-27T02:48:03.443Z,35.92
2024-02-27T02:50:32.924Z,38.30
2024-02-27T02:53:00.041Z,46.08
2024-02-27T02:55:27.645Z,46.75
2024-02-27T02:57:54.712Z,45.92
2024-02-27T03:00:21.847Z,48.50
2024-02-27T03:02:51.470Z,48.35
2024-02-27T03:05:18.429Z,34.47
2024-02-27T03:07:45.635Z,31.10
2024-02-27T03:10:12.829Z,33.08
2024-02-27T03:12:40.887Z,32.10
2024-02-27T03:15:08.728Z,27.70
2024-02-27T03:17:39.284Z,27.80
2024-02-27T03:20:07.206Z,26.63
2024-02-27T03:22:34.196Z,27.38
2024-02-27T03:25:06.166Z,28.85
2024-02-27T03:27:34.040Z,26.48
2024-02-27T03:30:03.263Z,28.45
2024-02-27T03:32:30.599Z,27.90
2024-02-27T03:34:57.992Z,27.98
2024-02-27T03:37:25.191Z,29.83
2024-02-27T03:39:52.143Z,24.73
2024-02-27T03:42:19.257Z,29.02
2024-02-27T03:44:49.270Z,30.30
2024-02-27T03:47:16.502Z,31.30
2024-02-27T03:49:44.318Z,31.00
2024-02-27T03:52:12.290Z,31.58
2024-02-27T03:54:39.875Z,26.55
2024-02-27T03:57:07.171Z,153.55
2024-02-27T03:59:34.531Z,27.67
2024-02-27T04:02:01.527Z,25.58
2024-02-27T04:04:31.559Z,27.83
2024-02-27T04:06:58.588Z,34.65
2024-02-27T04:09:25.823Z,34.25
2024-02-27T04:11:52.872Z,33.78
2024-02-27T04:14:19.798Z,32.33
2024-02-27T04:16:47.206Z,31.55
2024-02-27T04:19:14.503Z,30.77
2024-02-27T04:21:41.649Z,32.10
2024-02-27T04:24:08.906Z,26.92
2024-02-27T04:26:35.905Z,28.73
2024-02-27T04:29:05.407Z,31.00
2024-02-27T04:31:32.502Z,31.55
2024-02-27T04:33:59.600Z,27.73
2024-02-27T04:36:28.203Z,33.03
2024-02-27T04:38:58.261Z,35.75
2024-02-27T04:41:25.273Z,46.22
2024-02-27T04:43:52.270Z,55.90
2024-02-27T04:46:19.253Z,50.55
2024-02-27T04:48:46.292Z,50.97
2024-02-27T04:51:13.368Z,48.20
2024-02-27T04:53:44.034Z,46.42
2024-02-27T04:56:11.684Z,48.00
2024-02-27T04:58:38.706Z,45.92
2024-02-27T05:01:05.933Z,49.25
2024-02-27T05:03:34.767Z,47.42
2024-02-27T05:06:03.374Z,43.80
2024-02-27T05:08:30.556Z,46.88
2024-02-27T05:10:57.531Z,50.70
2024-02-27T05:13:24.611Z,46.42
2024-02-27T05:15:51.598Z,46.67
2024-02-27T05:18:19.130Z,48.90
2024-02-27T05:20:47.670Z,49.53
2024-02-27T05:23:19.169Z,51.92
2024-02-27T05:25:48.020Z,46.95
2024-02-27T05:28:15.251Z,43.30
2024-02-27T05:30:43.941Z,50.38
2024-02-27T05:33:11.025Z,49.10
2024-02-27T05:35:38.798Z,44.85
2024-02-27T05:38:05.781Z,35.30
2024-02-27T05:40:32.732Z,34.78
2024-02-27T05:43:00.027Z,30.00
2024-02-27T05:45:27.226Z,28.27
2024-02-27T05:47:54.311Z,28.98
2024-02-27T05:50:21.346Z,28.98
2024-02-27T05:52:50.567Z,30.35
2024-02-27T05:55:17.656Z,40.63
2024-02-27T05:57:45.411Z,56.00
2024-02-27T06:00:15.274Z,51.88
2024-02-27T06:02:42.462Z,54.35
2024-02-27T06:05:09.625Z,70.50
2024-02-27T06:07:38.383Z,68.78
2024-02-27T06:10:05.774Z,53.55
2024-02-27T06:12:32.752Z,45.10
2024-02-27T06:14:59.869Z,49.58
2024-02-27T06:17:26.913Z,43.30
2024-02-27T06:20:01.538Z,43.72
2024-02-27T06:22:30.785Z,35.95
2024-02-27T06:24:57.743Z,38.28
2024-02-27T06:27:24.769Z,32.60
2024-02-27T06:29:51.970Z,36.08
2024-02-27T06:32:21.659Z,33.90
2024-02-27T06:34:49.390Z,33.58
2024-02-27T06:44:40.166Z,37.27
2024-02-27T06:47:07.798Z,33.37
2024-02-27T06:49:35.120Z,31.90
2024-02-27T06:52:02.180Z,39.55
2024-02-27T06:54:29.139Z,42.20
2024-02-27T06:56:56.280Z,40.88
2024-02-27T07:16:32.967Z,37.27
2024-02-27T07:19:00.118Z,38.03
2024-02-27T07:21:27.330Z,35.88
2024-02-27T07:23:54.930Z,37.15
2024-02-27T07:26:22.046Z,34.33
2024-02-27T07:28:49.008Z,33.67
2024-02-27T07:31:20.181Z,32.97
2024-02-27T07:33:47.224Z,49.75
2024-02-27T07:36:14.777Z,49.75
2024-02-27T07:38:41.957Z,48.55
2024-02-27T07:41:10.836Z,50.00
2024-02-27T07:43:38.122Z,48.00
2024-02-27T07:46:06.817Z,45.53
2024-02-27T07:48:34.046Z,46.80
2024-02-27T07:51:03.478Z,46.47
2024-02-27T07:53:32.732Z,37.47
2024-02-27T07:55:59.752Z,37.25
2024-02-27T07:58:27.168Z,39.63
2024-02-27T08:00:55.555Z,33.75
2024-02-27T08:03:22.688Z,36.97
2024-02-27T08:05:49.749Z,37.20
2024-02-27T08:08:18.273Z,39.03
2024-02-27T08:10:45.467Z,39.90
2024-02-27T08:13:14.731Z,43.45
2024-02-27T08:15:41.867Z,42.28
2024-02-27T08:18:09.457Z,33.10
2024-02-27T08:20:36.475Z,33.25
2024-02-27T08:23:03.902Z,34.60
2024-02-27T08:25:30.997Z,31.88
2024-02-27T08:27:58.196Z,38.15
2024-02-27T08:30:25.474Z,41.95
2024-02-27T08:32:53.899Z,40.80
2024-02-27T08:35:22.514Z,40.90
2024-02-27T08:37:49.505Z,40.08
2024-02-27T08:40:16.778Z,39.67
2024-02-27T08:42:43.841Z,37.22
2024-02-27T08:45:11.445Z,38.22
2024-02-27T08:47:38.786Z,41.13
2024-02-27T08:50:07.765Z,40.80
2024-02-27T08:52:34.712Z,41.05
2024-02-27T08:55:01.767Z,42.65
2024-02-27T08:57:29.034Z,39.25
2024-02-27T08:59:56.154Z,37.60
2024-02-27T09:02:25.229Z,36.53
2024-02-27T09:04:52.958Z,35.33
2024-02-27T09:07:20.785Z,40.00
2024-02-27T09:09:47.998Z,51.90
2024-02-27T09:12:15.164Z,64.60
2024-02-27T09:14:42.269Z,64.15
2024-02-27T09:17:10.876Z,60.28
2024-02-27T09:22:20.711Z,53.10
2024-02-27T09:24:47.817Z,50.13
2024-02-27T09:27:16.523Z,46.17
2024-02-27T09:29:44.634Z,43.60
2024-02-27T09:32:11.888Z,47.38
2024-02-27T09:34:40.565Z,48.90
2024-02-27T09:37:07.673Z,41.33
2024-02-27T09:39:40.995Z,33.90
2024-02-27T09:42:33.682Z,30.83
2024-02-27T09:45:08.043Z,29.60
2024-02-27T09:47:51.259Z,30.00
2024-02-27T09:50:21.632Z,32.40
2024-02-27T09:52:53.218Z,33.95
2024-02-27T09:55:21.712Z,35.42
2024-02-27T09:57:50.025Z,32.22
2024-02-27T10:00:21.638Z,28.33
2024-02-27T10:02:52.059Z,29.27
2024-02-27T10:05:21.511Z,28.20
2024-02-27T10:07:52.732Z,28.73
2024-02-27T10:10:20.410Z,32.50
2024-02-27T10:12:47.978Z,39.35
2024-02-27T10:15:15.774Z,42.28
2024-02-27T10:17:46.874Z,45.03
2024-02-27T10:20:14.759Z,40.45
2024-02-27T10:22:43.009Z,36.53
2024-02-27T10:25:18.410Z,36.50
2024-02-27T10:27:45.730Z,32.67
2024-02-27T10:30:13.540Z,33.15
2024-02-27T10:32:44.392Z,30.73
2024-02-27T10:35:15.788Z,29.83
2024-02-27T10:37:43.539Z,29.38
2024-02-27T10:40:13.436Z,28.52
2024-02-27T10:42:41.909Z,25.40
2024-02-27T10:45:11.368Z,24.60
2024-02-27T10:47:38.791Z,24.13
2024-02-27T10:50:07.730Z,23.80
2024-02-27T10:52:39.159Z,22.85
2024-02-27T10:55:08.362Z,22.83
2024-02-27T10:57:37.436Z,23.48
2024-02-27T11:00:05.848Z,22.60
2024-02-27T11:02:37.803Z,21.58
2024-02-27T11:05:05.618Z,22.85
2024-02-27T11:07:33.571Z,22.65
2024-02-27T11:10:01.771Z,21.13
2024-02-27T11:12:33.805Z,20.85
2024-02-27T11:15:12.010Z,20.90
2024-02-27T11:17:48.167Z,19.95
2024-02-27T11:20:21.919Z,21.05
2024-02-27T11:22:49.760Z,19.48
2024-02-27T11:25:17.327Z,19.10
2024-02-27T11:27:45.995Z,18.45
2024-02-27T11:30:14.803Z,17.38
2024-02-27T11:32:41.846Z,16.13
2024-02-27T11:35:11.585Z,16.67
2024-02-27T11:37:38.656Z,15.90
2024-02-27T11:40:07.633Z,15.32
2024-02-27T11:42:45.011Z,15.00
2024-02-27T11:45:15.749Z,13.68
2024-02-27T11:47:49.721Z,13.35
2024-02-27T11:50:36.512Z,12.90
2024-02-27T11:56:07.945Z,10.75
2024-02-27T11:58:42.829Z,13.60
2024-02-27T12:01:15.412Z,13.85
2024-02-27T12:06:27.277Z,14.40
2024-02-27T12:08:56.020Z,14.20
2024-02-27T12:11:24.962Z,15.25
2024-02-27T12:13:52.779Z,17.10
2024-02-27T12:16:36.378Z,15.23
2024-02-27T12:19:03.541Z,15.73
2024-02-27T12:21:35.603Z,16.42
2024-02-27T12:24:17.774Z,15.23
2024-02-27T12:26:46.946Z,11.00
2024-02-27T12:29:18.563Z,10.55
2024-02-27T12:31:45.727Z,10.88
2024-02-27T12:34:14.211Z,11.15
2024-02-27T12:36:41.921Z,11.07
2024-02-27T12:39:12.362Z,10.85
2024-02-27T12:41:39.562Z,11.02
2024-02-27T12:44:06.528Z,10.27
2024-02-27T12:49:22.872Z,10.80
2024-02-27T12:51:52.306Z,10.55
2024-02-27T12:57:09.528Z,10.45
2024-02-27T12:59:40.504Z,9.48
2024-02-27T13:04:37.707Z,10.20
2024-02-27T13:07:05.305Z,11.02
2024-02-27T13:09:32.520Z,11.15
2024-02-27T13:12:09.912Z,10.27
2024-02-27T13:14:37.574Z,10.80
2024-02-27T13:17:04.598Z,10.82
2024-02-27T13:19:33.920Z,10.25
2024-02-27T13:22:02.280Z,10.07
2024-02-27T13:24:29.489Z,10.25
2024-02-27T13:26:58.860Z,11.52
2024-02-27T13:29:28.102Z,10.52
2024-02-27T13:31:56.371Z,10.65
2024-02-27T13:34:23.963Z,10.93
2024-02-27T13:36:51.117Z,9.48
2024-02-27T13:39:21.843Z,11.38
2024-02-27T13:41:49.217Z,10.57
2024-02-27T13:44:18.315Z,11.88
2024-02-27T13:46:45.490Z,12.00
2024-02-27T13:54:16.405Z,10.55
2024-02-27T13:56:43.754Z,11.60
2024-02-27T13:59:10.987Z,12.45
2024-02-27T14:01:38.773Z,11.30
2024-02-27T14:04:06.228Z,12.18
2024-02-27T14:06:33.646Z,12.15
2024-02-27T14:09:01.048Z,12.20
2024-02-27T14:11:28.333Z,11.68
2024-02-27T14:14:03.550Z,10.90
2024-02-27T14:16:43.363Z,10.05
2024-02-27T14:27:08.134Z,13.57
2024-02-27T14:29:35.989Z,13.52
2024-02-27T14:32:03.437Z,13.93
2024-02-27T14:34:30.872Z,13.93
2024-02-27T14:36:58.073Z,13.93
2024-02-27T14:39:26.939Z,14.70
2024-02-27T14:41:54.418Z,14.75
2024-02-27T14:44:21.438Z,14.93
2024-02-27T14:46:49.520Z,13.35
2024-02-27T14:49:16.751Z,13.35
2024-02-27T14:51:46.380Z,14.35
2024-02-27T14:54:13.783Z,14.43
2024-02-27T14:56:40.937Z,12.93
2024-02-27T14:59:08.158Z,16.17
2024-02-27T15:01:37.017Z,17.38
2024-02-27T15:04:05.069Z,15.90
2024-02-27T15:06:32.241Z,13.82
2024-02-27T15:08:59.595Z,13.65
2024-02-27T15:11:26.944Z,13.43
2024-02-27T15:13:54.150Z,12.80
2024-02-27T15:16:21.426Z,13.18
2024-02-27T15:18:48.525Z,10.15
2024-02-27T15:21:15.752Z,11.32
2024-02-27T15:23:42.796Z,11.65
2024-02-27T15:26:09.978Z,11.93
2024-02-27T15:28:36.964Z,12.82
2024-02-27T15:31:04.223Z,13.27
2024-02-27T15:33:32.712Z,13.20
2024-02-27T15:35:59.855Z,12.50
2024-02-27T15:38:26.905Z,12.73
2024-02-27T15:40:54.261Z,12.80
2024-02-27T15:43:21.355Z,13.55
2024-02-27T15:45:48.499Z,12.70
2024-02-27T15:48:15.842Z,12.88
2024-02-27T15:50:43.089Z,11.65
2024-02-27T15:53:10.305Z,13.90
2024-02-27T15:55:37.335Z,16.50
2024-02-27T15:58:04.493Z,15.95
2024-02-27T16:00:32.732Z,13.88
2024-02-27T16:03:12.858Z,14.38
2024-02-27T16:05:40.409Z,11.68
2024-02-27T16:08:07.693Z,12.68
2024-02-27T16:10:35.032Z,10.32
2024-02-27T16:13:02.261Z,9.27
2024-02-27T16:15:31.357Z,9.10
2024-02-27T16:18:01.227Z,8.73
2024-02-27T16:20:28.643Z,8.60
2024-02-27T16:22:55.840Z,8.60
2024-02-27T16:25:24.346Z,8.90
2024-02-27T16:27:55.702Z,8.60
2024-02-27T16:30:22.933Z,7.72
2024-02-27T16:32:50.558Z,8.30
2024-02-27T16:35:17.881Z,8.20
2024-02-27T16:37:44.987Z,7.70
2024-02-27T16:40:12.448Z,7.97
2024-02-27T16:42:39.862Z,9.25
2024-02-27T16:45:07.762Z,10.68
2024-02-27T16:47:37.360Z,7.32
2024-02-27T16:50:06.498Z,7.65
2024-02-27T16:52:35.084Z,7.65
2024-02-27T16:55:02.462Z,7.20
2024-02-27T16:57:32.101Z,7.47
2024-02-27T17:00:03.574Z,8.00
2024-02-27T17:02:31.835Z,9.25
2024-02-27T17:04:58.849Z,10.35
2024-02-27T17:07:30.211Z,11.45
2024-02-27T17:09:57.422Z,13.30
2024-02-27T17:12:25.136Z,15.95
2024-02-27T17:14:52.297Z,13.88
2024-02-27T17:17:19.650Z,9.73
2024-02-27T17:19:46.889Z,9.63
2024-02-27T17:22:14.015Z,10.75
2024-02-27T17:24:41.092Z,10.55
2024-02-27T17:27:10.993Z,14.57
2024-02-27T17:29:41.992Z,13.32
2024-02-27T17:32:09.611Z,10.25
2024-02-27T17:34:36.771Z,10.60
2024-02-27T17:37:07.043Z,10.13
2024-02-27T17:39:37.881Z,8.05
2024-02-27T17:42:05.249Z,10.57
2024-02-27T17:44:32.671Z,8.23
2024-02-27T17:46:59.658Z,8.48
2024-02-27T17:49:26.758Z,6.97
2024-02-27T17:51:53.815Z,6.88
2024-02-27T17:54:21.652Z,6.57
2024-02-27T17:56:50.901Z,8.68
2024-02-27T17:59:19.268Z,7.68
2024-02-27T18:01:49.814Z,7.90
2024-02-27T18:04:17.498Z,9.07
2024-02-27T18:06:45.440Z,9.00
2024-02-27T18:09:14.573Z,9.10
2024-02-27T18:11:46.405Z,9.40
2024-02-27T18:14:13.410Z,8.93
2024-02-27T18:16:40.997Z,9.07
2024-02-27T18:19:08.685Z,9.95
2024-02-27T18:21:46.120Z,10.27
2024-02-27T18:24:13.404Z,11.85
2024-02-27T18:26:40.644Z,12.15
2024-02-27T18:29:08.416Z,15.80
2024-02-27T18:31:35.406Z,17.60
2024-02-27T18:34:03.528Z,16.92
2024-02-27T18:36:30.915Z,17.42
2024-02-27T18:38:58.196Z,18.55
2024-02-27T18:41:25.996Z,13.93
2024-02-27T18:43:54.456Z,14.55
2024-02-27T18:46:21.601Z,12.57
2024-02-27T18:48:48.653Z,12.20
2024-02-27T18:51:15.886Z,11.00
2024-02-27T18:53:44.148Z,10.43
2024-02-27T18:56:11.294Z,9.98
2024-02-27T18:58:38.371Z,8.85
2024-02-27T19:01:06.674Z,7.50
2024-02-27T19:03:33.917Z,8.07
2024-02-27T19:06:04.932Z,8.68
2024-02-27T19:08:34.872Z,8.82
2024-02-27T19:11:06.164Z,9.40
2024-02-27T19:13:34.903Z,11.57
2024-02-27T19:16:01.992Z,15.68
2024-02-27T19:18:29.030Z,14.98
2024-02-27T19:20:56.079Z,18.90
2024-02-27T19:23:23.168Z,14.20
2024-02-27T19:25:50.151Z,11.43
2024-02-27T19:28:17.154Z,10.02
2024-02-27T19:30:46.977Z,9.48
2024-02-27T19:33:18.247Z,9.38
2024-02-27T19:35:46.003Z,9.65
2024-02-27T19:38:19.168Z,9.98
2024-02-27T19:40:47.164Z,9.45
2024-02-27T19:43:14.361Z,10.18
2024-02-27T19:45:41.642Z,8.88
2024-02-27T19:48:09.587Z,10.10
2024-02-27T19:50:36.834Z,10.20
2024-02-27T19:53:08.177Z,10.15
2024-02-27T19:55:37.004Z,11.05
2024-02-27T19:58:04.167Z,10.50
2024-02-27T20:00:31.805Z,11.32
2024-02-27T20:03:00.262Z,10.98
2024-02-27T20:05:27.219Z,10.68
2024-02-27T20:07:58.338Z,10.23
2024-02-27T20:12:54.740Z,10.35
2024-02-27T20:15:21.885Z,10.48
2024-02-27T20:17:49.085Z,11.25
2024-02-27T20:20:16.173Z,11.32
2024-02-27T20:22:43.260Z,11.02
2024-02-27T20:25:10.400Z,11.40
2024-02-27T20:27:38.056Z,12.18
2024-02-27T20:30:05.954Z,12.68
2024-02-27T20:32:33.035Z,12.55
2024-02-27T20:35:01.018Z,13.07
2024-02-27T20:37:27.979Z,11.23
2024-02-27T20:39:57.445Z,11.68
2024-02-27T20:42:24.736Z,11.40
2024-02-27T20:44:51.827Z,52.17
2024-02-27T20:47:18.865Z,17.58
2024-02-27T20:49:45.825Z,13.05
2024-02-27T20:52:13.867Z,11.75
2024-02-27T20:54:41.052Z,11.88
2024-02-27T20:57:08.183Z,11.60
2024-02-27T20:59:35.735Z,11.75
2024-02-27T21:02:04.529Z,12.65
2024-02-27T21:04:31.536Z,13.10
2024-02-27T21:06:59.047Z,12.55
2024-02-27T21:09:26.288Z,12.38
2024-02-27T21:11:54.768Z,11.57
2024-02-27T21:14:22.905Z,9.75
2024-02-27T21:16:49.882Z,10.55
2024-02-27T21:19:16.933Z,9.63
2024-02-27T21:21:45.592Z,9.82
2024-02-27T21:24:12.762Z,10.15
2024-02-27T21:26:40.812Z,10.57
2024-02-27T21:29:07.880Z,11.02
2024-02-27T21:31:35.910Z,11.30
2024-02-27T21:34:03.396Z,10.98
2024-02-27T21:36:30.453Z,11.15
2024-02-27T21:38:57.567Z,10.32
2024-02-27T21:41:24.795Z,10.65
2024-02-27T21:43:54.402Z,10.50
2024-02-27T21:46:21.560Z,10.43
2024-02-27T21:48:48.595Z,11.48
2024-02-27T21:51:15.752Z,15.50
2024-02-27T21:53:42.786Z,18.48
2024-02-27T21:56:12.377Z,16.17
2024-02-27T21:58:40.117Z,12.82
2024-02-27T22:01:07.207Z,12.90
2024-02-27T22:03:34.308Z,12.70
2024-02-27T22:06:02.097Z,14.88
2024-02-27T22:08:29.034Z,13.07
2024-02-27T22:10:56.074Z,13.85
2024-02-27T22:13:23.029Z,12.63
2024-02-27T22:15:50.665Z,12.65
2024-02-27T22:18:17.840Z,11.40
2024-02-27T22:20:44.852Z,12.10
2024-02-27T22:23:11.908Z,11.88
2024-02-27T22:25:38.848Z,13.98
2024-02-27T22:28:06.264Z,10.82
2024-02-27T22:30:33.451Z,11.70
2024-02-27T22:33:00.662Z,14.40
2024-02-27T22:35:28.111Z,12.25
2024-02-27T22:37:57.302Z,12.95
2024-02-27T22:40:24.314Z,14.38
2024-02-27T22:42:52.293Z,13.80
2024-02-27T22:45:19.687Z,13.70
2024-02-27T22:47:46.885Z,13.38
2024-02-27T22:52:43.331Z,20.65
2024-02-27T22:55:10.455Z,15.73
2024-02-27T22:57:38.354Z,18.55
2024-02-27T23:00:10.882Z,14.02
2024-02-27T23:02:39.103Z,10.50
2024-02-27T23:05:07.519Z,10.95
2024-02-27T23:07:34.569Z,12.75
2024-02-27T23:10:07.930Z,17.92
2024-02-27T23:12:40.387Z,14.60
2024-02-27T23:15:08.979Z,17.20
2024-02-27T23:17:36.280Z,14.30
2024-02-27T23:20:04.121Z,17.80
2024-02-27T23:22:31.126Z,16.73
2024-02-27T23:25:00.781Z,16.27
2024-02-27T23:27:27.952Z,14.18
2024-02-27T23:29:54.989Z,13.90
2024-02-27T23:32:21.968Z,19.80
2024-02-27T23:34:48.993Z,16.60
2024-02-27T23:37:17.113Z,18.42
2024-02-27T23:39:44.165Z,11.43
2024-02-27T23:42:11.272Z,12.77
2024-02-27T23:44:38.302Z,12.15
2024-02-27T23:47:08.736Z,14.65
2024-02-27T23:49:35.860Z,13.15
2024-02-27T23:52:02.947Z,16.60
2024-02-27T23:54:30.004Z,16.92
2024-02-27T23:56:56.989Z,17.20
2024-02-27T23:59:24.056Z,40.70
